sensor_id;sensor_type;location;lat;lon;timestamp;temperature;humidity
22436;DHT22;11385;50.822;4.324;2023-06-04T00:01:30;18.70;80.40
22436;DHT22;11385;50.822;4.324;2023-06-04T00:03:57;18.60;81.00
22436;DHT22;11385;50.822;4.324;2023-06-04T00:06:24;18.50;81.20
22436;DHT22;11385;50.822;4.324;2023-06-04T00:08:51;18.50;81.90
22436;DHT22;11385;50.822;4.324;2023-06-04T00:11:17;18.60;81.80
22436;DHT22;11385;50.822;4.324;2023-06-04T00:13:45;18.50;81.60
22436;DHT22;11385;50.822;4.324;2023-06-04T00:16:13;18.30;82.30
22436;DHT22;11385;50.822;4.324;2023-06-04T00:18:39;18.40;82.50
22436;DHT22;11385;50.822;4.324;2023-06-04T00:21:06;18.10;82.90
22436;DHT22;11385;50.822;4.324;2023-06-04T00:23:33;18.20;83.10
22436;DHT22;11385;50.822;4.324;2023-06-04T00:25:59;18.30;83.70
22436;DHT22;11385;50.822;4.324;2023-06-04T00:28:26;18.30;83.40
22436;DHT22;11385;50.822;4.324;2023-06-04T00:30:53;18.20;83.30
22436;DHT22;11385;50.822;4.324;2023-06-04T00:33:20;18.10;83.70
22436;DHT22;11385;50.822;4.324;2023-06-04T00:35:46;18.10;84.30
22436;DHT22;11385;50.822;4.324;2023-06-04T00:38:13;18.20;84.40
22436;DHT22;11385;50.822;4.324;2023-06-04T00:40:40;18.20;84.40
22436;DHT22;11385;50.822;4.324;2023-06-04T00:43:23;18.10;85.10
22436;DHT22;11385;50.822;4.324;2023-06-04T00:45:58;18.00;84.90
22436;DHT22;11385;50.822;4.324;2023-06-04T00:48:25;17.90;85.20
22436;DHT22;11385;50.822;4.324;2023-06-04T00:50:53;17.90;85.60
22436;DHT22;11385;50.822;4.324;2023-06-04T00:53:23;17.80;86.10
22436;DHT22;11385;50.822;4.324;2023-06-04T00:55:51;17.70;86.40
22436;DHT22;11385;50.822;4.324;2023-06-04T00:58:17;17.60;87.20
22436;DHT22;11385;50.822;4.324;2023-06-04T01:00:44;17.60;87.90
22436;DHT22;11385;50.822;4.324;2023-06-04T01:03:14;17.50;87.90
22436;DHT22;11385;50.822;4.324;2023-06-04T01:05:47;17.40;88.40
22436;DHT22;11385;50.822;4.324;2023-06-04T01:08:12;17.30;89.70
22436;DHT22;11385;50.822;4.324;2023-06-04T01:13:13;17.40;90.00
22436;DHT22;11385;50.822;4.324;2023-06-04T01:15:40;17.40;90.00
22436;DHT22;11385;50.822;4.324;2023-06-04T01:18:07;17.30;90.20
22436;DHT22;11385;50.822;4.324;2023-06-04T01:20:40;17.30;90.70
22436;DHT22;11385;50.822;4.324;2023-06-04T01:23:19;17.40;90.50
22436;DHT22;11385;50.822;4.324;2023-06-04T01:25:45;17.40;90.50
22436;DHT22;11385;50.822;4.324;2023-06-04T01:28:14;17.40;90.70
22436;DHT22;11385;50.822;4.324;2023-06-04T01:30:44;17.30;90.90
22436;DHT22;11385;50.822;4.324;2023-06-04T01:33:13;17.20;91.00
22436;DHT22;11385;50.822;4.324;2023-06-04T01:35:40;17.20;91.40
22436;DHT22;11385;50.822;4.324;2023-06-04T01:38:08;17.10;91.50
22436;DHT22;11385;50.822;4.324;2023-06-04T01:40:35;17.10;91.50
22436;DHT22;11385;50.822;4.324;2023-06-04T01:43:02;17.00;92.20
22436;DHT22;11385;50.822;4.324;2023-06-04T01:45:31;16.90;92.60
22436;DHT22;11385;50.822;4.324;2023-06-04T01:48:00;16.90;92.50
22436;DHT22;11385;50.822;4.324;2023-06-04T01:50:26;16.90;92.80
22436;DHT22;11385;50.822;4.324;2023-06-04T01:52:53;16.70;93.00
22436;DHT22;11385;50.822;4.324;2023-06-04T01:55:20;16.70;93.60
22436;DHT22;11385;50.822;4.324;2023-06-04T01:57:47;16.60;93.80
22436;DHT22;11385;50.822;4.324;2023-06-04T02:00:14;16.60;94.30
22436;DHT22;11385;50.822;4.324;2023-06-04T02:02:44;16.60;94.50
22436;DHT22;11385;50.822;4.324;2023-06-04T02:05:12;16.60;95.10
22436;DHT22;11385;50.822;4.324;2023-06-04T02:07:40;16.40;95.50
22436;DHT22;11385;50.822;4.324;2023-06-04T02:10:09;16.40;96.20
22436;DHT22;11385;50.822;4.324;2023-06-04T02:12:37;16.50;96.50
22436;DHT22;11385;50.822;4.324;2023-06-04T02:15:05;16.60;96.70
22436;DHT22;11385;50.822;4.324;2023-06-04T02:17:33;16.40;97.40
22436;DHT22;11385;50.822;4.324;2023-06-04T02:20:02;16.40;97.80
22436;DHT22;11385;50.822;4.324;2023-06-04T02:22:30;16.30;98.70
22436;DHT22;11385;50.822;4.324;2023-06-04T02:24:57;16.30;99.40
22436;DHT22;11385;50.822;4.324;2023-06-04T02:27:24;16.00;99.90
22436;DHT22;11385;50.822;4.324;2023-06-04T02:29:50;15.90;99.90
22436;DHT22;11385;50.822;4.324;2023-06-04T02:32:17;15.90;99.90
22436;DHT22;11385;50.822;4.324;2023-06-04T02:34:44;15.80;99.90
22436;DHT22;11385;50.822;4.324;2023-06-04T02:37:10;15.60;99.90
22436;DHT22;11385;50.822;4.324;2023-06-04T02:39:37;15.60;99.90
22436;DHT22;11385;50.822;4.324;2023-06-04T02:42:04;15.60;99.90
22436;DHT22;11385;50.822;4.324;2023-06-04T02:44:31;15.80;99.90
22436;DHT22;11385;50.822;4.324;2023-06-04T02:46:58;15.70;99.90
22436;DHT22;11385;50.822;4.324;2023-06-04T02:49:25;15.70;99.90
22436;DHT22;11385;50.822;4.324;2023-06-04T02:51:51;15.60;99.90
22436;DHT22;11385;50.822;4.324;2023-06-04T02:54:18;15.70;99.90
22436;DHT22;11385;50.822;4.324;2023-06-04T02:56:44;15.70;99.90
22436;DHT22;11385;50.822;4.324;2023-06-04T02:59:11;15.60;99.90
22436;DHT22;11385;50.822;4.324;2023-06-04T03:01:41;15.50;99.90
22436;DHT22;11385;50.822;4.324;2023-06-04T03:04:07;15.50;99.90
22436;DHT22;11385;50.822;4.324;2023-06-04T03:06:36;15.50;99.90
22436;DHT22;11385;50.822;4.324;2023-06-04T03:09:04;15.30;99.90
22436;DHT22;11385;50.822;4.324;2023-06-04T03:11:31;15.30;99.90
22436;DHT22;11385;50.822;4.324;2023-06-04T03:13:57;15.30;99.90
22436;DHT22;11385;50.822;4.324;2023-06-04T03:16:24;15.20;99.90
22436;DHT22;11385;50.822;4.324;2023-06-04T03:18:51;15.30;99.90
22436;DHT22;11385;50.822;4.324;2023-06-04T03:21:17;15.10;99.90
22436;DHT22;11385;50.822;4.324;2023-06-04T03:23:44;15.10;99.90
22436;DHT22;11385;50.822;4.324;2023-06-04T03:26:11;15.10;99.90
22436;DHT22;11385;50.822;4.324;2023-06-04T03:28:40;15.00;99.90
22436;DHT22;11385;50.822;4.324;2023-06-04T03:31:06;15.00;99.90
22436;DHT22;11385;50.822;4.324;2023-06-04T03:33:33;15.10;99.90
22436;DHT22;11385;50.822;4.324;2023-06-04T03:36:00;15.10;99.90
22436;DHT22;11385;50.822;4.324;2023-06-04T03:38:28;15.00;99.90
22436;DHT22;11385;50.822;4.324;2023-06-04T03:40:55;15.00;99.90
22436;DHT22;11385;50.822;4.324;2023-06-04T03:43:22;15.00;99.90
22436;DHT22;11385;50.822;4.324;2023-06-04T03:45:49;15.00;99.90
22436;DHT22;11385;50.822;4.324;2023-06-04T03:48:15;15.00;99.90
22436;DHT22;11385;50.822;4.324;2023-06-04T03:50:42;14.90;99.90
22436;DHT22;11385;50.822;4.324;2023-06-04T03:53:11;14.90;99.90
22436;DHT22;11385;50.822;4.324;2023-06-04T03:55:38;14.70;99.90
22436;DHT22;11385;50.822;4.324;2023-06-04T03:58:05;14.60;99.90
22436;DHT22;11385;50.822;4.324;2023-06-04T04:00:34;14.70;99.90
22436;DHT22;11385;50.822;4.324;2023-06-04T04:03:00;14.70;99.90
22436;DHT22;11385;50.822;4.324;2023-06-04T04:05:28;14.70;99.90
22436;DHT22;11385;50.822;4.324;2023-06-04T04:07:55;14.80;99.90
22436;DHT22;11385;50.822;4.324;2023-06-04T04:10:21;14.80;99.90
22436;DHT22;11385;50.822;4.324;2023-06-04T04:12:48;14.80;99.90
22436;DHT22;11385;50.822;4.324;2023-06-04T04:15:16;14.80;99.90
22436;DHT22;11385;50.822;4.324;2023-06-04T04:17:43;14.70;99.90
22436;DHT22;11385;50.822;4.324;2023-06-04T04:20:10;14.80;99.90
22436;DHT22;11385;50.822;4.324;2023-06-04T04:22:40;14.80;99.90
22436;DHT22;11385;50.822;4.324;2023-06-04T04:25:09;14.70;99.90
22436;DHT22;11385;50.822;4.324;2023-06-04T04:27:36;14.70;99.90
22436;DHT22;11385;50.822;4.324;2023-06-04T04:35:33;14.70;99.90
22436;DHT22;11385;50.822;4.324;2023-06-04T04:38:00;14.70;99.90
22436;DHT22;11385;50.822;4.324;2023-06-04T04:40:30;14.80;99.90
22436;DHT22;11385;50.822;4.324;2023-06-04T04:42:58;14.70;99.90
22436;DHT22;11385;50.822;4.324;2023-06-04T04:45:24;14.70;99.90
22436;DHT22;11385;50.822;4.324;2023-06-04T04:47:51;14.70;99.90
22436;DHT22;11385;50.822;4.324;2023-06-04T04:50:18;14.80;99.90
22436;DHT22;11385;50.822;4.324;2023-06-04T04:52:44;14.80;99.90
22436;DHT22;11385;50.822;4.324;2023-06-04T04:55:11;14.90;99.90
22436;DHT22;11385;50.822;4.324;2023-06-04T04:57:39;14.90;99.90
22436;DHT22;11385;50.822;4.324;2023-06-04T05:00:07;14.70;99.90
22436;DHT22;11385;50.822;4.324;2023-06-04T05:02:35;14.70;99.90
22436;DHT22;11385;50.822;4.324;2023-06-04T05:05:03;14.80;99.90
22436;DHT22;11385;50.822;4.324;2023-06-04T05:07:30;14.80;99.90
22436;DHT22;11385;50.822;4.324;2023-06-04T05:09:56;14.80;99.90
22436;DHT22;11385;50.822;4.324;2023-06-04T05:12:25;14.90;99.90
22436;DHT22;11385;50.822;4.324;2023-06-04T05:14:53;15.00;99.90
22436;DHT22;11385;50.822;4.324;2023-06-04T05:17:19;15.00;99.90
22436;DHT22;11385;50.822;4.324;2023-06-04T05:19:48;15.00;99.90
22436;DHT22;11385;50.822;4.324;2023-06-04T05:22:14;15.20;99.90
22436;DHT22;11385;50.822;4.324;2023-06-04T05:24:43;15.20;99.90
22436;DHT22;11385;50.822;4.324;2023-06-04T05:27:10;15.20;99.90
22436;DHT22;11385;50.822;4.324;2023-06-04T05:29:36;15.20;99.90
22436;DHT22;11385;50.822;4.324;2023-06-04T05:32:03;15.30;99.90
22436;DHT22;11385;50.822;4.324;2023-06-04T05:34:30;15.60;99.90
22436;DHT22;11385;50.822;4.324;2023-06-04T05:36:58;15.70;99.90
22436;DHT22;11385;50.822;4.324;2023-06-04T05:39:25;15.70;99.90
22436;DHT22;11385;50.822;4.324;2023-06-04T05:41:52;15.70;99.90
22436;DHT22;11385;50.822;4.324;2023-06-04T05:44:18;15.60;99.90
22436;DHT22;11385;50.822;4.324;2023-06-04T05:46:45;15.70;99.90
22436;DHT22;11385;50.822;4.324;2023-06-04T05:49:12;15.60;99.90
22436;DHT22;11385;50.822;4.324;2023-06-04T05:51:39;15.40;99.90
22436;DHT22;11385;50.822;4.324;2023-06-04T05:54:05;15.50;99.90
22436;DHT22;11385;50.822;4.324;2023-06-04T05:56:32;15.50;99.90
22436;DHT22;11385;50.822;4.324;2023-06-04T05:58:59;15.70;99.90
22436;DHT22;11385;50.822;4.324;2023-06-04T06:01:26;15.60;99.90
22436;DHT22;11385;50.822;4.324;2023-06-04T06:03:54;15.60;99.90
22436;DHT22;11385;50.822;4.324;2023-06-04T06:06:21;15.80;99.90
22436;DHT22;11385;50.822;4.324;2023-06-04T06:08:48;15.80;99.90
22436;DHT22;11385;50.822;4.324;2023-06-04T06:11:17;15.80;99.90
22436;DHT22;11385;50.822;4.324;2023-06-04T06:13:43;15.90;99.90
22436;DHT22;11385;50.822;4.324;2023-06-04T06:16:10;15.80;99.90
22436;DHT22;11385;50.822;4.324;2023-06-04T06:18:37;15.90;99.90
22436;DHT22;11385;50.822;4.324;2023-06-04T06:21:04;16.10;99.90
22436;DHT22;11385;50.822;4.324;2023-06-04T06:23:31;16.20;99.90
22436;DHT22;11385;50.822;4.324;2023-06-04T06:25:57;16.20;99.90
22436;DHT22;11385;50.822;4.324;2023-06-04T06:28:26;16.10;99.90
22436;DHT22;11385;50.822;4.324;2023-06-04T06:30:53;16.20;99.90
22436;DHT22;11385;50.822;4.324;2023-06-04T06:33:20;16.20;99.90
22436;DHT22;11385;50.822;4.324;2023-06-04T06:35:49;16.20;99.90
22436;DHT22;11385;50.822;4.324;2023-06-04T06:38:16;16.20;99.90
22436;DHT22;11385;50.822;4.324;2023-06-04T06:40:45;16.30;99.90
22436;DHT22;11385;50.822;4.324;2023-06-04T06:43:12;16.30;99.90
22436;DHT22;11385;50.822;4.324;2023-06-04T06:45:39;16.20;99.90
22436;DHT22;11385;50.822;4.324;2023-06-04T06:48:06;16.30;99.90
22436;DHT22;11385;50.822;4.324;2023-06-04T06:50:32;16.50;99.90
22436;DHT22;11385;50.822;4.324;2023-06-04T06:53:02;16.60;99.90
22436;DHT22;11385;50.822;4.324;2023-06-04T06:55:29;16.60;99.90
22436;DHT22;11385;50.822;4.324;2023-06-04T06:57:56;16.70;99.90
22436;DHT22;11385;50.822;4.324;2023-06-04T07:00:22;16.90;99.90
22436;DHT22;11385;50.822;4.324;2023-06-04T07:02:49;16.80;99.90
22436;DHT22;11385;50.822;4.324;2023-06-04T07:05:16;16.80;99.90
22436;DHT22;11385;50.822;4.324;2023-06-04T07:07:43;16.90;99.90
22436;DHT22;11385;50.822;4.324;2023-06-04T07:10:10;17.10;99.90
22436;DHT22;11385;50.822;4.324;2023-06-04T07:12:37;17.10;99.90
22436;DHT22;11385;50.822;4.324;2023-06-04T07:15:06;17.20;99.90
22436;DHT22;11385;50.822;4.324;2023-06-04T07:17:34;17.10;99.90
22436;DHT22;11385;50.822;4.324;2023-06-04T07:20:01;17.20;99.90
22436;DHT22;11385;50.822;4.324;2023-06-04T07:22:27;17.30;99.90
22436;DHT22;11385;50.822;4.324;2023-06-04T07:24:54;17.50;99.90
22436;DHT22;11385;50.822;4.324;2023-06-04T07:27:21;17.50;99.90
22436;DHT22;11385;50.822;4.324;2023-06-04T07:29:48;17.70;99.90
22436;DHT22;11385;50.822;4.324;2023-06-04T07:32:15;17.80;99.90
22436;DHT22;11385;50.822;4.324;2023-06-04T07:34:41;18.00;99.90
22436;DHT22;11385;50.822;4.324;2023-06-04T07:37:08;17.90;99.90
22436;DHT22;11385;50.822;4.324;2023-06-04T07:39:36;18.00;99.90
22436;DHT22;11385;50.822;4.324;2023-06-04T07:42:04;18.10;99.90
22436;DHT22;11385;50.822;4.324;2023-06-04T07:44:33;18.20;99.90
22436;DHT22;11385;50.822;4.324;2023-06-04T07:47:01;18.50;99.90
22436;DHT22;11385;50.822;4.324;2023-06-04T07:49:27;18.50;99.90
22436;DHT22;11385;50.822;4.324;2023-06-04T07:51:54;18.60;99.90
22436;DHT22;11385;50.822;4.324;2023-06-04T07:54:21;18.60;99.90
22436;DHT22;11385;50.822;4.324;2023-06-04T07:56:47;18.70;99.90
22436;DHT22;11385;50.822;4.324;2023-06-04T07:59:15;18.70;99.90
22436;DHT22;11385;50.822;4.324;2023-06-04T08:01:41;18.90;99.90
22436;DHT22;11385;50.822;4.324;2023-06-04T08:04:08;19.20;99.90
22436;DHT22;11385;50.822;4.324;2023-06-04T08:06:35;19.30;99.90
22436;DHT22;11385;50.822;4.324;2023-06-04T08:09:01;19.30;99.90
22436;DHT22;11385;50.822;4.324;2023-06-04T08:11:28;19.30;99.90
22436;DHT22;11385;50.822;4.324;2023-06-04T08:13:55;19.20;99.90
22436;DHT22;11385;50.822;4.324;2023-06-04T08:16:22;19.30;99.90
22436;DHT22;11385;50.822;4.324;2023-06-04T08:18:48;19.40;99.90
22436;DHT22;11385;50.822;4.324;2023-06-04T08:21:25;19.50;99.90
22436;DHT22;11385;50.822;4.324;2023-06-04T08:23:46;19.50;99.90
22436;DHT22;11385;50.822;4.324;2023-06-04T08:26:13;19.70;99.90
22436;DHT22;11385;50.822;4.324;2023-06-04T08:28:41;19.90;99.90
22436;DHT22;11385;50.822;4.324;2023-06-04T08:31:07;20.00;99.90
22436;DHT22;11385;50.822;4.324;2023-06-04T08:33:34;20.00;99.90
22436;DHT22;11385;50.822;4.324;2023-06-04T08:36:00;20.00;99.90
22436;DHT22;11385;50.822;4.324;2023-06-04T08:38:27;20.10;99.90
22436;DHT22;11385;50.822;4.324;2023-06-04T08:40:57;20.20;99.90
22436;DHT22;11385;50.822;4.324;2023-06-04T08:43:25;20.30;99.90
22436;DHT22;11385;50.822;4.324;2023-06-04T08:45:56;20.40;99.90
22436;DHT22;11385;50.822;4.324;2023-06-04T08:48:23;20.50;99.90
22436;DHT22;11385;50.822;4.324;2023-06-04T08:50:51;20.60;99.90
22436;DHT22;11385;50.822;4.324;2023-06-04T08:53:19;20.70;99.90
22436;DHT22;11385;50.822;4.324;2023-06-04T08:55:47;20.90;99.90
22436;DHT22;11385;50.822;4.324;2023-06-04T08:58:16;20.90;99.90
22436;DHT22;11385;50.822;4.324;2023-06-04T09:00:44;21.10;99.90
22436;DHT22;11385;50.822;4.324;2023-06-04T09:03:13;21.30;99.90
22436;DHT22;11385;50.822;4.324;2023-06-04T09:05:43;21.40;99.90
22436;DHT22;11385;50.822;4.324;2023-06-04T09:08:12;21.30;99.90
22436;DHT22;11385;50.822;4.324;2023-06-04T09:10:41;21.40;99.90
22436;DHT22;11385;50.822;4.324;2023-06-04T09:13:08;21.50;99.90
22436;DHT22;11385;50.822;4.324;2023-06-04T09:15:36;21.40;99.90
22436;DHT22;11385;50.822;4.324;2023-06-04T09:18:03;21.50;99.90
22436;DHT22;11385;50.822;4.324;2023-06-04T09:20:31;21.50;99.90
22436;DHT22;11385;50.822;4.324;2023-06-04T09:22:58;21.60;99.90
22436;DHT22;11385;50.822;4.324;2023-06-04T09:25:26;21.60;99.90
22436;DHT22;11385;50.822;4.324;2023-06-04T09:27:57;21.50;99.90
22436;DHT22;11385;50.822;4.324;2023-06-04T09:30:24;21.70;99.90
22436;DHT22;11385;50.822;4.324;2023-06-04T09:32:51;21.80;99.90
22436;DHT22;11385;50.822;4.324;2023-06-04T09:35:19;22.00;99.90
22436;DHT22;11385;50.822;4.324;2023-06-04T09:37:54;22.00;99.90
22436;DHT22;11385;50.822;4.324;2023-06-04T09:40:22;22.20;99.90
22436;DHT22;11385;50.822;4.324;2023-06-04T09:42:49;22.20;99.90
22436;DHT22;11385;50.822;4.324;2023-06-04T09:45:28;22.20;99.90
22436;DHT22;11385;50.822;4.324;2023-06-04T09:47:55;22.00;99.90
22436;DHT22;11385;50.822;4.324;2023-06-04T09:50:27;22.10;99.90
22436;DHT22;11385;50.822;4.324;2023-06-04T09:52:54;22.20;99.90
22436;DHT22;11385;50.822;4.324;2023-06-04T09:55:21;22.40;99.90
22436;DHT22;11385;50.822;4.324;2023-06-04T09:57:50;22.50;99.90
22436;DHT22;11385;50.822;4.324;2023-06-04T10:00:21;22.50;99.90
22436;DHT22;11385;50.822;4.324;2023-06-04T10:02:49;22.70;99.90
22436;DHT22;11385;50.822;4.324;2023-06-04T10:05:17;22.80;99.90
22436;DHT22;11385;50.822;4.324;2023-06-04T10:07:46;23.00;99.90
22436;DHT22;11385;50.822;4.324;2023-06-04T10:10:16;23.00;99.90
22436;DHT22;11385;50.822;4.324;2023-06-04T10:12:44;23.00;99.90
22436;DHT22;11385;50.822;4.324;2023-06-04T10:15:13;23.00;99.90
22436;DHT22;11385;50.822;4.324;2023-06-04T10:17:40;22.80;99.90
22436;DHT22;11385;50.822;4.324;2023-06-04T10:20:07;22.90;99.90
22436;DHT22;11385;50.822;4.324;2023-06-04T10:22:37;22.90;99.90
22436;DHT22;11385;50.822;4.324;2023-06-04T10:25:04;22.90;99.90
22436;DHT22;11385;50.822;4.324;2023-06-04T10:27:32;22.80;99.90
22436;DHT22;11385;50.822;4.324;2023-06-04T10:30:03;22.90;99.90
22436;DHT22;11385;50.822;4.324;2023-06-04T10:32:31;23.00;99.90
22436;DHT22;11385;50.822;4.324;2023-06-04T10:34:58;23.10;99.90
22436;DHT22;11385;50.822;4.324;2023-06-04T10:37:26;23.10;99.90
22436;DHT22;11385;50.822;4.324;2023-06-04T10:39:56;23.00;99.70
22436;DHT22;11385;50.822;4.324;2023-06-04T10:42:24;23.10;99.90
22436;DHT22;11385;50.822;4.324;2023-06-04T10:44:52;23.10;99.90
22436;DHT22;11385;50.822;4.324;2023-06-04T10:47:22;23.20;99.90
22436;DHT22;11385;50.822;4.324;2023-06-04T10:49:50;23.20;98.90
22436;DHT22;11385;50.822;4.324;2023-06-04T10:52:18;23.20;98.60
22436;DHT22;11385;50.822;4.324;2023-06-04T10:54:46;23.20;99.90
22436;DHT22;11385;50.822;4.324;2023-06-04T10:57:16;23.20;99.40
22436;DHT22;11385;50.822;4.324;2023-06-04T10:59:56;23.60;99.50
22436;DHT22;11385;50.822;4.324;2023-06-04T11:02:24;23.80;98.60
22436;DHT22;11385;50.822;4.324;2023-06-04T11:04:58;23.70;98.10
22436;DHT22;11385;50.822;4.324;2023-06-04T11:07:27;23.80;98.60
22436;DHT22;11385;50.822;4.324;2023-06-04T11:09:55;23.80;97.80
22436;DHT22;11385;50.822;4.324;2023-06-04T11:12:22;24.00;97.60
22436;DHT22;11385;50.822;4.324;2023-06-04T11:14:56;24.10;96.50
22436;DHT22;11385;50.822;4.324;2023-06-04T11:17:23;24.10;97.90
22436;DHT22;11385;50.822;4.324;2023-06-04T11:19:51;24.20;97.50
22436;DHT22;11385;50.822;4.324;2023-06-04T11:22:20;24.40;97.30
22436;DHT22;11385;50.822;4.324;2023-06-04T11:24:48;24.20;97.50
22436;DHT22;11385;50.822;4.324;2023-06-04T11:27:14;24.20;96.50
22436;DHT22;11385;50.822;4.324;2023-06-04T11:29:42;24.00;96.00
22436;DHT22;11385;50.822;4.324;2023-06-04T11:32:23;24.00;97.20
22436;DHT22;11385;50.822;4.324;2023-06-04T11:34:50;24.20;97.10
22436;DHT22;11385;50.822;4.324;2023-06-04T11:37:17;24.40;97.30
22436;DHT22;11385;50.822;4.324;2023-06-04T11:39:43;24.50;96.50
22436;DHT22;11385;50.822;4.324;2023-06-04T11:42:10;24.50;95.10
22436;DHT22;11385;50.822;4.324;2023-06-04T11:44:38;24.50;95.40
22436;DHT22;11385;50.822;4.324;2023-06-04T11:47:07;24.60;94.70
22436;DHT22;11385;50.822;4.324;2023-06-04T11:49:35;24.70;94.70
22436;DHT22;11385;50.822;4.324;2023-06-04T11:52:02;24.80;95.40
22436;DHT22;11385;50.822;4.324;2023-06-04T11:54:30;24.90;94.60
22436;DHT22;11385;50.822;4.324;2023-06-04T11:57:00;24.90;94.60
22436;DHT22;11385;50.822;4.324;2023-06-04T11:59:28;25.00;94.70
22436;DHT22;11385;50.822;4.324;2023-06-04T12:01:55;25.00;94.60
22436;DHT22;11385;50.822;4.324;2023-06-04T12:04:23;25.10;93.60
22436;DHT22;11385;50.822;4.324;2023-06-04T12:06:52;25.00;94.10
22436;DHT22;11385;50.822;4.324;2023-06-04T12:09:21;25.10;94.00
22436;DHT22;11385;50.822;4.324;2023-06-04T12:11:49;25.00;92.90
22436;DHT22;11385;50.822;4.324;2023-06-04T12:14:17;24.90;92.40
22436;DHT22;11385;50.822;4.324;2023-06-04T12:16:54;25.00;92.90
22436;DHT22;11385;50.822;4.324;2023-06-04T12:19:21;24.90;92.10
22436;DHT22;11385;50.822;4.324;2023-06-04T12:22:05;25.00;93.20
22436;DHT22;11385;50.822;4.324;2023-06-04T12:24:34;25.30;92.90
22436;DHT22;11385;50.822;4.324;2023-06-04T12:27:05;25.40;92.70
22436;DHT22;11385;50.822;4.324;2023-06-04T12:29:33;25.40;92.80
22436;DHT22;11385;50.822;4.324;2023-06-04T12:32:04;25.30;92.10
22436;DHT22;11385;50.822;4.324;2023-06-04T12:34:32;25.40;93.00
22436;DHT22;11385;50.822;4.324;2023-06-04T12:36:59;25.30;92.50
22436;DHT22;11385;50.822;4.324;2023-06-04T12:39:26;25.40;91.70
22436;DHT22;11385;50.822;4.324;2023-06-04T12:41:52;25.50;91.50
22436;DHT22;11385;50.822;4.324;2023-06-04T12:44:19;25.60;91.80
22436;DHT22;11385;50.822;4.324;2023-06-04T12:46:47;25.60;91.90
22436;DHT22;11385;50.822;4.324;2023-06-04T12:49:13;25.60;91.40
22436;DHT22;11385;50.822;4.324;2023-06-04T12:51:40;25.80;91.30
22436;DHT22;11385;50.822;4.324;2023-06-04T12:54:07;25.80;90.60
22436;DHT22;11385;50.822;4.324;2023-06-04T12:56:34;25.80;90.80
22436;DHT22;11385;50.822;4.324;2023-06-04T12:59:01;25.80;91.00
22436;DHT22;11385;50.822;4.324;2023-06-04T13:01:28;25.80;90.70
22436;DHT22;11385;50.822;4.324;2023-06-04T13:03:55;25.90;91.00
22436;DHT22;11385;50.822;4.324;2023-06-04T13:06:21;26.10;90.40
22436;DHT22;11385;50.822;4.324;2023-06-04T13:08:48;26.10;89.30
22436;DHT22;11385;50.822;4.324;2023-06-04T13:11:14;26.20;89.90
22436;DHT22;11385;50.822;4.324;2023-06-04T13:13:41;26.40;90.00
22436;DHT22;11385;50.822;4.324;2023-06-04T13:16:08;26.30;89.20
22436;DHT22;11385;50.822;4.324;2023-06-04T13:18:35;26.20;89.10
22436;DHT22;11385;50.822;4.324;2023-06-04T13:21:02;26.20;89.00
22436;DHT22;11385;50.822;4.324;2023-06-04T13:23:29;26.10;87.10
22436;DHT22;11385;50.822;4.324;2023-06-04T13:25:55;26.00;87.10
22436;DHT22;11385;50.822;4.324;2023-06-04T13:28:22;26.20;87.60
22436;DHT22;11385;50.822;4.324;2023-06-04T13:30:49;26.10;86.50
22436;DHT22;11385;50.822;4.324;2023-06-04T13:33:16;26.20;85.10
22436;DHT22;11385;50.822;4.324;2023-06-04T13:35:45;26.40;86.80
22436;DHT22;11385;50.822;4.324;2023-06-04T13:38:12;26.40;86.20
22436;DHT22;11385;50.822;4.324;2023-06-04T13:40:39;26.50;86.80
22436;DHT22;11385;50.822;4.324;2023-06-04T13:43:06;26.40;84.90
22436;DHT22;11385;50.822;4.324;2023-06-04T13:45:34;26.30;85.60
22436;DHT22;11385;50.822;4.324;2023-06-04T13:48:01;26.40;85.50
22436;DHT22;11385;50.822;4.324;2023-06-04T13:50:31;26.50;85.80
22436;DHT22;11385;50.822;4.324;2023-06-04T13:52:59;26.60;84.60
22436;DHT22;11385;50.822;4.324;2023-06-04T13:55:25;26.60;85.50
22436;DHT22;11385;50.822;4.324;2023-06-04T13:57:54;26.70;84.30
22436;DHT22;11385;50.822;4.324;2023-06-04T14:00:21;26.70;84.10
22436;DHT22;11385;50.822;4.324;2023-06-04T14:02:48;26.70;84.70
22436;DHT22;11385;50.822;4.324;2023-06-04T14:05:16;26.60;85.70
22436;DHT22;11385;50.822;4.324;2023-06-04T14:07:43;26.70;84.90
22436;DHT22;11385;50.822;4.324;2023-06-04T14:10:11;26.80;83.60
22436;DHT22;11385;50.822;4.324;2023-06-04T14:12:38;26.70;82.60
22436;DHT22;11385;50.822;4.324;2023-06-04T14:15:08;26.90;81.10
22436;DHT22;11385;50.822;4.324;2023-06-04T14:17:35;26.90;82.60
22436;DHT22;11385;50.822;4.324;2023-06-04T14:20:02;26.70;81.40
22436;DHT22;11385;50.822;4.324;2023-06-04T14:22:37;26.50;82.50
22436;DHT22;11385;50.822;4.324;2023-06-04T14:25:05;26.90;83.00
22436;DHT22;11385;50.822;4.324;2023-06-04T14:27:34;27.10;81.40
22436;DHT22;11385;50.822;4.324;2023-06-04T14:30:04;26.90;81.50
22436;DHT22;11385;50.822;4.324;2023-06-04T14:32:32;27.00;81.60
22436;DHT22;11385;50.822;4.324;2023-06-04T14:34:59;27.10;79.90
22436;DHT22;11385;50.822;4.324;2023-06-04T14:37:26;27.00;80.70
22436;DHT22;11385;50.822;4.324;2023-06-04T14:39:53;26.90;82.20
22436;DHT22;11385;50.822;4.324;2023-06-04T14:42:20;26.90;81.80
22436;DHT22;11385;50.822;4.324;2023-06-04T14:44:46;26.90;82.20
22436;DHT22;11385;50.822;4.324;2023-06-04T14:47:14;27.20;81.40
22436;DHT22;11385;50.822;4.324;2023-06-04T14:49:42;27.50;77.70
22436;DHT22;11385;50.822;4.324;2023-06-04T14:52:08;27.30;77.10
22436;DHT22;11385;50.822;4.324;2023-06-04T14:54:36;27.20;77.10
22436;DHT22;11385;50.822;4.324;2023-06-04T14:57:03;27.00;76.40
22436;DHT22;11385;50.822;4.324;2023-06-04T14:59:29;27.20;77.70
22436;DHT22;11385;50.822;4.324;2023-06-04T15:01:56;27.10;78.20
22436;DHT22;11385;50.822;4.324;2023-06-04T15:04:23;27.10;77.40
22436;DHT22;11385;50.822;4.324;2023-06-04T15:06:49;27.10;76.30
22436;DHT22;11385;50.822;4.324;2023-06-04T15:09:16;27.10;76.80
22436;DHT22;11385;50.822;4.324;2023-06-04T15:11:43;27.20;75.50
22436;DHT22;11385;50.822;4.324;2023-06-04T15:14:09;27.00;75.90
22436;DHT22;11385;50.822;4.324;2023-06-04T15:16:36;27.00;77.30
22436;DHT22;11385;50.822;4.324;2023-06-04T15:19:03;27.10;76.90
22436;DHT22;11385;50.822;4.324;2023-06-04T15:21:30;27.00;76.10
22436;DHT22;11385;50.822;4.324;2023-06-04T15:23:56;27.00;77.60
22436;DHT22;11385;50.822;4.324;2023-06-04T15:26:23;27.30;77.10
22436;DHT22;11385;50.822;4.324;2023-06-04T15:28:51;27.20;76.20
22436;DHT22;11385;50.822;4.324;2023-06-04T15:31:17;27.30;75.60
22436;DHT22;11385;50.822;4.324;2023-06-04T15:33:44;27.30;76.50
22436;DHT22;11385;50.822;4.324;2023-06-04T15:36:11;27.20;74.40
22436;DHT22;11385;50.822;4.324;2023-06-04T15:38:37;27.50;73.60
22436;DHT22;11385;50.822;4.324;2023-06-04T15:41:04;27.50;73.30